Time;durP1;ratioP1;P1;durP2;ratioP2;P2;SDS_P1;SDS_P2;PMS_P1;PMS_P2;Temp;Humidity;BMP_temperature;BMP_pressure;BME280_temperature;BME280_humidity;BME280_pressure;Samples;Min_cycle;Max_cycle;Signal;HPM_P1;HPM_P2
2021/01/31 00:01:00;;;;;;;29.23;18.10;;;-1.70;99.90;;;;;;12966027;22;20457;-92
2021/01/31 00:06:04;;;;;;;29.65;18.42;;;-1.80;99.90;;;;;;12991419;22;20099;-92
2021/01/31 00:11:05;;;;;;;29.52;16.80;;;-1.90;99.90;;;;;;12991151;22;20055;-91
2021/01/31 00:16:06;;;;;;;27.95;16.15;;;-1.90;99.90;;;;;;12964703;22;20058;-91
2021/01/31 00:21:07;;;;;;;31.00;18.02;;;-1.90;99.90;;;;;;12964113;22;20452;-90
2021/01/31 00:26:09;;;;;;;24.92;16.10;;;-1.90;99.90;;;;;;12990046;22;20047;-90
2021/01/31 00:31:10;;;;;;;27.10;16.25;;;-1.90;99.90;;;;;;12989578;22;20043;-90
2021/01/31 00:36:11;;;;;;;29.42;17.20;;;-1.90;99.90;;;;;;12963379;22;20094;-89
2021/01/31 00:41:13;;;;;;;27.33;17.50;;;-1.90;99.90;;;;;;12963340;22;20019;-89
2021/01/31 00:46:14;;;;;;;31.45;19.17;;;-1.90;99.90;;;;;;12962462;22;20047;-88
2021/01/31 00:51:15;;;;;;;;;;;-2.00;99.90;;;;;;12989457;22;20020;-88
2021/01/31 00:56:17;;;;;;;34.17;19.02;;;-2.00;99.90;;;;;;12986549;22;19926;-88
2021/01/31 01:01:19;;;;;;;30.38;17.73;;;-2.10;99.90;;;;;;12987139;22;20054;-87
2021/01/31 01:06:21;;;;;;;27.52;16.77;;;-2.10;99.90;;;;;;12988017;22;20046;-87
2021/01/31 01:11:22;;;;;;;29.58;17.65;;;-2.10;99.90;;;;;;12962528;22;20027;-87
2021/01/31 01:16:23;;;;;;;;;;;-2.10;99.90;;;;;;12988674;22;20103;-87
2021/01/31 01:21:26;;;;;;;26.40;15.93;;;-2.20;99.90;;;;;;12989789;22;20003;-87
2021/01/31 01:26:29;;;;;;;34.35;19.80;;;-2.20;99.90;;;;;;12987357;22;20027;-87
2021/01/31 01:31:30;;;;;;;29.75;15.20;;;-2.30;99.90;;;;;;12989093;22;20019;-87
2021/01/31 01:36:32;;;;;;;;;;;-2.30;99.90;;;;;;12960481;22;20115;-86
2021/01/31 01:41:43;;;;;;;30.58;17.77;;;-2.40;99.90;;;;;;12987833;22;19947;-87
2021/01/31 01:46:50;;;;;;;28.13;16.90;;;-2.50;99.90;;;;;;12987062;22;20022;-87
2021/01/31 01:52:03;;;;;;;29.13;15.70;;;-2.50;99.90;;;;;;12989296;22;20102;-87
2021/01/31 01:57:09;;;;;;;25.23;16.00;;;-2.50;99.90;;;;;;12989079;22;20123;-87
2021/01/31 02:02:21;;;;;;;25.23;16.10;;;-2.60;99.90;;;;;;12989748;22;20026;-87
2021/01/31 02:07:22;;;;;;;26.30;15.32;;;-2.60;99.90;;;;;;12987762;22;20020;-88
2021/01/31 02:12:28;;;;;;;28.08;16.45;;;-2.60;99.90;;;;;;12986112;22;20085;-87
2021/01/31 02:17:55;;;;;;;36.80;21.35;;;-2.50;99.90;;;;;;12985987;22;20102;-87
2021/01/31 02:23:34;;;;;;;31.65;17.25;;;-2.50;99.90;;;;;;12986564;22;20047;-88
2021/01/31 02:28:57;;;;;;;38.38;19.67;;;-2.50;99.90;;;;;;12988801;22;20020;-87
2021/01/31 02:34:30;;;;;;;30.65;18.35;;;-2.60;99.90;;;;;;12988372;22;20051;-87
2021/01/31 02:39:42;;;;;;;28.88;17.10;;;-2.60;99.90;;;;;;12960823;22;20544;-87
2021/01/31 02:45:03;;;;;;;35.42;20.63;;;-2.70;99.90;;;;;;12961466;22;20103;-87
2021/01/31 02:50:09;;;;;;;34.55;19.77;;;-2.70;99.90;;;;;;12961470;22;20098;-87
2021/01/31 02:55:21;;;;;;;31.92;18.23;;;-2.70;99.90;;;;;;12988431;22;20047;-87
2021/01/31 03:00:32;;;;;;;37.85;21.35;;;-2.80;99.90;;;;;;12961775;22;20048;-87
2021/01/31 03:05:38;;;;;;;32.30;19.30;;;-2.80;99.90;;;;;;12987470;22;20039;-86
2021/01/31 03:11:12;;;;;;;39.20;20.95;;;-2.80;99.90;;;;;;12964508;22;20127;-87
2021/01/31 03:16:23;;;;;;;33.33;18.85;;;-2.80;99.90;;;;;;12943435;22;20059;-87
2021/01/31 03:21:29;;;;;;;31.93;18.67;;;-2.90;99.90;;;;;;12991022;22;20341;-87
2021/01/31 03:26:37;;;;;;;27.17;16.00;;;-2.90;99.90;;;;;;12989467;22;20460;-87
2021/01/31 03:31:44;;;;;;;26.63;16.20;;;-3.00;99.90;;;;;;12989259;22;20099;-87
2021/01/31 03:36:51;;;;;;;32.65;19.15;;;-3.10;99.90;;;;;;12989537;22;20058;-87
2021/01/31 03:41:53;;;;;;;34.33;19.02;;;-3.10;99.90;;;;;;12990111;22;20095;-87
2021/01/31 03:47:06;;;;;;;30.80;16.95;;;-3.10;99.90;;;;;;12990255;22;20034;-87
2021/01/31 03:52:08;;;;;;;28.83;16.20;;;-3.20;99.90;;;;;;12987757;22;20047;-87
2021/01/31 03:57:47;;;;;;;27.75;16.67;;;-3.20;99.90;;;;;;12990015;22;20024;-87
2021/01/31 04:03:08;;;;;;;30.00;17.70;;;-3.10;99.90;;;;;;12983134;22;20025;-88
2021/01/31 04:08:11;;;;;;;28.85;16.70;;;-3.30;99.90;;;;;;12989265;22;20036;-88
2021/01/31 04:13:13;;;;;;;29.10;16.58;;;-3.30;99.90;;;;;;12989514;22;20051;-88
2021/01/31 04:18:17;;;;;;;28.65;17.55;;;-3.30;99.90;;;;;;12987241;22;20016;-89
2021/01/31 04:23:21;;;;;;;24.10;15.40;;;-3.30;99.90;;;;;;12964266;22;20016;-90
2021/01/31 04:28:25;;;;;;;28.65;18.25;;;-3.20;99.90;;;;;;12965370;22;20044;-88
2021/01/31 04:33:26;;;;;;;32.25;18.42;;;-3.30;99.90;;;;;;12963030;22;20030;-88
2021/01/31 04:38:28;;;;;;;30.60;16.77;;;-3.30;99.90;;;;;;12963833;22;20070;-88
2021/01/31 04:43:29;;;;;;;26.90;16.35;;;-3.30;99.90;;;;;;12938653;22;20026;-88
2021/01/31 04:49:01;;;;;;;31.75;18.48;;;-3.40;99.90;;;;;;12962266;22;20488;-88
2021/01/31 04:54:35;;;;;;;33.13;18.95;;;-3.50;99.90;;;;;;12963548;22;20326;-87
2021/01/31 04:59:42;;;;;;;29.02;17.80;;;-3.40;99.90;;;;;;12963502;22;20027;-88
2021/01/31 05:04:59;;;;;;;28.83;17.42;;;-3.50;99.90;;;;;;12990187;22;20102;-88
2021/01/31 05:10:00;;;;;;;32.78;18.52;;;-3.40;99.90;;;;;;12961034;22;20453;-88
2021/01/31 05:15:04;;;;;;;40.17;22.75;;;-3.40;99.90;;;;;;12963158;22;20024;-88
2021/01/31 05:20:08;;;;;;;26.80;15.68;;;-3.50;99.90;;;;;;12915438;23;20016;-88
2021/01/31 05:25:14;;;;;;;31.08;18.90;;;-3.50;99.90;;;;;;12899824;23;20020;-88
2021/01/31 05:30:17;;;;;;;33.85;19.05;;;-3.60;99.90;;;;;;12899001;23;20020;-87
2021/01/31 05:35:23;;;;;;;26.48;16.85;;;-3.60;99.90;;;;;;12874657;23;20024;-88
2021/01/31 05:40:41;;;;;;;28.17;15.73;;;-3.70;99.90;;;;;;12925092;23;20099;-88
2021/01/31 05:45:44;;;;;;;29.42;17.00;;;-3.80;99.90;;;;;;12900566;23;20015;-88
2021/01/31 05:50:46;;;;;;;28.10;16.58;;;-3.90;99.90;;;;;;12898822;23;20074;-88
2021/01/31 05:55:48;;;;;;;37.35;19.80;;;-3.80;99.90;;;;;;12899343;23;20049;-88
2021/01/31 06:01:05;;;;;;;33.88;17.98;;;-4.00;99.90;;;;;;12898577;23;20020;-88
2021/01/31 06:06:14;;;;;;;33.03;18.50;;;-4.00;99.90;;;;;;12898845;23;20104;-88
2021/01/31 06:11:24;;;;;;;34.72;19.38;;;-4.10;99.90;;;;;;12925606;23;20540;-88
2021/01/31 06:16:25;;;;;;;26.20;15.35;;;-4.20;99.90;;;;;;12899146;22;20028;-88
2021/01/31 06:21:42;;;;;;;30.27;15.82;;;-4.20;99.90;;;;;;12988518;22;20095;-88
2021/01/31 06:26:43;;;;;;;26.50;15.77;;;-4.20;99.90;;;;;;12961324;22;20448;-88
2021/01/31 06:31:53;;;;;;;25.80;14.13;;;-3.90;99.90;;;;;;12937335;22;20031;-88
2021/01/31 06:37:22;;;;;;;24.25;14.77;;;-4.20;99.90;;;;;;12962912;22;20508;-88
2021/01/31 06:42:58;;;;;;;23.77;14.68;;;-4.30;99.90;;;;;;12988953;22;20016;-88
2021/01/31 06:48:25;;;;;;;27.10;15.23;;;-4.30;99.90;;;;;;12966203;22;20381;-89
2021/01/31 06:54:08;;;;;;;24.48;14.27;;;-4.30;99.90;;;;;;12966146;22;20024;-88
2021/01/31 06:59:28;;;;;;;25.95;15.55;;;-4.30;99.90;;;;;;12965319;22;20133;-88
2021/01/31 07:04:50;;;;;;;30.17;16.17;;;-4.40;99.90;;;;;;12965012;22;20464;-90
2021/01/31 07:10:16;;;;;;;24.80;15.05;;;-4.40;99.90;;;;;;12965091;22;20071;-90
2021/01/31 07:15:19;;;;;;;34.42;17.88;;;-4.40;99.90;;;;;;12966564;22;20020;-90
2021/01/31 07:20:25;;;;;;;25.90;14.70;;;-4.30;99.90;;;;;;12965041;22;20055;-90
2021/01/31 07:25:31;;;;;;;27.67;16.00;;;-4.40;99.90;;;;;;12965648;22;20023;-90
2021/01/31 07:30:53;;;;;;;40.85;21.17;;;-4.50;99.90;;;;;;12965144;22;20457;-91
2021/01/31 07:36:06;;;;;;;36.80;19.20;;;-4.30;99.90;;;;;;12965530;22;20031;-91
2021/01/31 07:41:08;;;;;;;32.25;18.75;;;-4.10;99.90;;;;;;12966693;22;20019;-91
2021/01/31 07:46:17;;;;;;;31.55;18.15;;;-4.10;99.90;;;;;;12964163;22;20023;-90
2021/01/31 07:51:38;;;;;;;29.58;16.90;;;-4.00;99.90;;;;;;12964260;22;20095;-90
2021/01/31 07:56:40;;;;;;;30.48;17.75;;;-3.90;99.90;;;;;;12963430;22;20042;-90
2021/01/31 08:01:41;;;;;;;33.55;17.20;;;-3.90;99.90;;;;;;12938702;22;20404;-90
2021/01/31 08:06:50;;;;;;;33.05;18.52;;;-3.80;99.90;;;;;;12963827;22;20475;-90
2021/01/31 08:12:00;;;;;;;34.70;19.92;;;-3.70;99.90;;;;;;12964464;22;20030;-90
2021/01/31 08:17:03;;;;;;;27.08;15.68;;;-3.60;99.90;;;;;;12990375;22;20031;-90
2021/01/31 08:22:09;;;;;;;34.90;17.83;;;-3.50;99.90;;;;;;12964524;22;20016;-90
2021/01/31 08:27:12;;;;;;;37.45;19.13;;;-3.30;99.90;;;;;;12963486;22;20095;-90
2021/01/31 08:32:15;;;;;;;32.97;19.00;;;-2.90;99.90;;;;;;12937423;22;20031;-90
2021/01/31 08:37:28;;;;;;;29.92;17.20;;;-2.20;99.90;;;;;;12962542;22;20360;-90
2021/01/31 08:42:30;;;;;;;33.33;19.55;;;-0.90;99.90;;;;;;12963583;22;20051;-90
2021/01/31 08:47:42;;;;;;;30.85;17.95;;;0.70;99.90;;;;;;12937778;22;20410;-90
2021/01/31 08:52:44;;;;;;;;;;;0.00;99.90;;;;;;12938638;22;20058;-90
2021/01/31 08:57:45;;;;;;;27.55;15.48;;;-1.50;99.90;;;;;;12963217;22;19938;-89
2021/01/31 09:02:47;;;;;;;28.33;16.98;;;-1.80;99.90;;;;;;12962427;22;20471;-89
2021/01/31 09:07:50;;;;;;;;;;;-1.50;99.90;;;;;;12963314;22;20054;-90
2021/01/31 09:13:28;;;;;;;28.70;18.02;;;0.20;99.90;;;;;;12962696;22;19986;-89
2021/01/31 09:18:30;;;;;;;31.85;17.88;;;-0.10;99.90;;;;;;12962626;22;20107;-89
2021/01/31 09:23:36;;;;;;;;;;;-0.50;99.90;;;;;;12962439;22;20404;-89
2021/01/31 09:28:40;;;;;;;26.15;16.23;;;2.00;99.90;;;;;;12962733;22;19915;-88
2021/01/31 09:33:44;;;;;;;29.20;16.60;;;0.80;99.90;;;;;;12944879;22;20051;-89
2021/01/31 09:38:57;;;;;;;26.10;16.38;;;-0.20;99.90;;;;;;12987757;22;20030;-89
2021/01/31 09:44:04;;;;;;;27.35;17.35;;;-0.50;99.90;;;;;;12961517;22;20015;-89
2021/01/31 09:49:14;;;;;;;23.48;15.30;;;-0.10;99.90;;;;;;12961411;22;20022;-88
2021/01/31 09:54:30;;;;;;;24.27;15.75;;;-0.50;99.90;;;;;;12962858;22;20020;-89
2021/01/31 09:59:36;;;;;;;28.45;16.83;;;-0.90;99.90;;;;;;12961516;22;20333;-89
2021/01/31 10:04:40;;;;;;;24.60;16.35;;;-0.90;99.90;;;;;;12961425;22;20016;-89
2021/01/31 10:09:50;;;;;;;25.90;15.20;;;-1.00;99.90;;;;;;12962151;22;20103;-88
2021/01/31 10:15:08;;;;;;;27.70;15.38;;;-1.30;99.90;;;;;;12961932;22;20095;-88
2021/01/31 10:20:34;;;;;;;21.83;14.30;;;-1.20;99.90;;;;;;12981261;22;20091;-93
2021/01/31 10:25:40;;;;;;;28.00;14.43;;;-0.90;99.90;;;;;;12994561;22;20020;-93
2021/01/31 10:30:49;;;;;;;26.55;15.23;;;-1.00;99.90;;;;;;12992980;22;20034;-92
2021/01/31 10:35:51;;;;;;;24.25;14.75;;;-1.10;99.90;;;;;;12992124;22;20031;-93
2021/01/31 10:40:52;;;;;;;23.73;15.13;;;-0.90;99.90;;;;;;12967771;22;20016;-92
2021/01/31 10:45:54;;;;;;;24.98;15.93;;;-0.90;99.90;;;;;;12966718;22;20095;-92
2021/01/31 10:50:56;;;;;;;24.58;15.18;;;-0.80;99.90;;;;;;12967873;22;20062;-92
2021/01/31 10:55:57;;;;;;;30.20;18.15;;;-0.60;99.90;;;;;;12966901;22;20058;-91
2021/01/31 11:00:58;;;;;;;23.35;15.13;;;-0.60;99.90;;;;;;12967274;22;20047;-91
2021/01/31 11:06:00;;;;;;;26.92;17.23;;;-0.60;99.90;;;;;;12966960;22;20038;-91
2021/01/31 11:11:01;;;;;;;23.52;15.23;;;-0.60;99.90;;;;;;12967790;22;20075;-90
2021/01/31 11:16:03;;;;;;;26.13;15.38;;;-0.40;99.90;;;;;;12967086;22;20417;-90
2021/01/31 11:21:04;;;;;;;;;;;-0.40;99.90;;;;;;13056761;22;20348;-90
2021/01/31 11:26:06;;;;;;;22.63;14.77;;;-0.50;99.90;;;;;;13030027;22;19937;-90
2021/01/31 11:31:08;;;;;;;23.15;14.82;;;-0.40;99.90;;;;;;13004261;22;20098;-90
2021/01/31 11:36:10;;;;;;;21.88;15.23;;;-0.40;99.90;;;;;;13004856;22;20031;-89
2021/01/31 11:41:12;;;;;;;23.38;15.63;;;-0.40;99.90;;;;;;13029617;22;20098;-89
2021/01/31 11:46:13;;;;;;;26.58;16.10;;;-0.40;99.90;;;;;;13028516;22;20348;-90
2021/01/31 11:51:14;;;;;;;22.17;14.43;;;-0.30;99.90;;;;;;13004236;22;20099;-89
2021/01/31 11:56:16;;;;;;;22.13;15.50;;;-0.20;99.90;;;;;;13030118;22;20058;-88
2021/01/31 12:01:18;;;;;;;22.20;14.50;;;-0.30;99.90;;;;;;13004832;22;20098;-88
2021/01/31 12:06:19;;;;;;;20.83;14.27;;;-0.20;99.90;;;;;;13003696;22;20022;-89
2021/01/31 12:11:20;;;;;;;22.40;15.25;;;-0.20;99.90;;;;;;13003289;22;20098;-89
2021/01/31 12:16:22;;;;;;;24.25;14.63;;;-0.20;99.90;;;;;;13001745;22;20046;-88
2021/01/31 12:21:24;;;;;;;25.67;14.90;;;-0.10;99.90;;;;;;13000178;22;20027;-89
2021/01/31 12:26:25;;;;;;;23.08;14.73;;;0.00;99.90;;;;;;13053167;22;20337;-88
2021/01/31 12:31:27;;;;;;;24.48;13.98;;;0.10;99.90;;;;;;13001337;22;20478;-89
2021/01/31 12:36:28;;;;;;;;;;;0.10;99.90;;;;;;13028655;22;20023;-89
2021/01/31 12:41:30;;;;;;;23.90;13.95;;;0.10;99.90;;;;;;13026511;22;19950;-89
2021/01/31 12:46:31;;;;;;;21.67;14.20;;;0.20;99.90;;;;;;13000668;22;20019;-89
2021/01/31 12:51:33;;;;;;;20.55;12.98;;;0.30;99.90;;;;;;13025790;22;20094;-88
2021/01/31 12:56:34;;;;;;;16.40;11.55;;;0.50;99.90;;;;;;13026764;22;20027;-89
2021/01/31 13:01:35;;;;;;;23.13;14.25;;;0.50;99.90;;;;;;13002167;22;20015;-89
2021/01/31 13:06:37;;;;;;;20.10;14.15;;;0.50;99.90;;;;;;13002204;22;20019;-88
2021/01/31 13:11:38;;;;;;;19.50;12.95;;;0.60;99.90;;;;;;13001020;22;20042;-89
2021/01/31 13:16:39;;;;;;;19.17;13.38;;;0.70;99.90;;;;;;13026325;22;20102;-91
2021/01/31 13:21:41;;;;;;;18.15;12.63;;;0.90;99.90;;;;;;13026875;22;20043;-88
2021/01/31 13:26:42;;;;;;;18.05;12.63;;;1.00;99.90;;;;;;13000482;22;20103;-87
2021/01/31 13:31:44;;;;;;;20.23;12.13;;;1.00;99.90;;;;;;13027592;22;20023;-89
2021/01/31 13:36:46;;;;;;;17.75;12.82;;;1.10;99.90;;;;;;13026118;22;20027;-89
2021/01/31 13:41:47;;;;;;;18.33;12.88;;;1.20;99.90;;;;;;13001358;22;20047;-89
2021/01/31 13:46:48;;;;;;;17.58;11.60;;;1.30;99.90;;;;;;13001239;22;20038;-89
2021/01/31 13:51:50;;;;;;;17.88;11.57;;;1.40;99.90;;;;;;13001415;22;20046;-90
2021/01/31 13:56:51;;;;;;;16.80;12.02;;;1.40;99.90;;;;;;13026999;22;20019;-90
2021/01/31 14:01:52;;;;;;;14.18;10.38;;;1.40;99.90;;;;;;13000823;22;20019;-91
2021/01/31 14:06:54;;;;;;;17.50;11.13;;;1.40;99.90;;;;;;13002139;22;20054;-90
2021/01/31 14:11:55;;;;;;;10.82;8.50;;;1.50;99.90;;;;;;13001119;22;20101;-90
2021/01/31 14:16:56;;;;;;;16.10;11.20;;;1.50;99.90;;;;;;13000720;22;20023;-90
2021/01/31 14:21:58;;;;;;;14.70;10.15;;;1.60;99.90;;;;;;13026825;22;20126;-91
2021/01/31 14:26:59;;;;;;;15.70;9.93;;;1.30;99.90;;;;;;13000987;22;20412;-91
2021/01/31 14:32:00;;;;;;;12.55;8.80;;;1.30;99.90;;;;;;12976852;22;20102;-90
2021/01/31 14:37:02;;;;;;;;;;;1.20;99.90;;;;;;13001881;22;20390;-91
2021/01/31 14:42:03;;;;;;;13.65;9.70;;;1.70;99.90;;;;;;13001589;22;19922;-91
2021/01/31 14:47:04;;;;;;;10.98;7.20;;;1.10;99.90;;;;;;13001494;22;20019;-90
2021/01/31 14:52:06;;;;;;;13.25;8.43;;;1.20;99.90;;;;;;13000934;22;20065;-90
2021/01/31 14:57:07;;;;;;;11.52;8.43;;;1.10;99.90;;;;;;13001286;22;20050;-90
2021/01/31 15:02:08;;;;;;;13.18;8.95;;;1.10;99.90;;;;;;13026542;22;20050;-90
2021/01/31 15:07:10;;;;;;;14.95;9.02;;;1.20;99.90;;;;;;13005017;22;20090;-91
2021/01/31 15:12:12;;;;;;;14.18;9.07;;;1.00;99.90;;;;;;13030843;22;20050;-90
2021/01/31 15:17:13;;;;;;;13.30;8.55;;;1.00;99.90;;;;;;13004433;22;20063;-91
2021/01/31 15:22:17;;;;;;;13.25;9.65;;;0.90;99.90;;;;;;13030087;22;20019;-90
2021/01/31 15:27:18;;;;;;;22.83;9.88;;;0.90;99.90;;;;;;12977523;22;20736;-90
2021/01/31 15:32:20;;;;;;;14.88;10.02;;;0.70;99.90;;;;;;12979058;22;20046;-90
2021/01/31 15:37:21;;;;;;;16.50;9.57;;;0.30;99.90;;;;;;13003622;22;20507;-90
2021/01/31 15:42:22;;;;;;;13.65;9.25;;;0.60;99.90;;;;;;12978128;22;20371;-90
2021/01/31 15:47:24;;;;;;;15.32;9.52;;;0.40;99.90;;;;;;13002992;22;20229;-89
2021/01/31 15:52:25;;;;;;;;;;;0.20;99.90;;;;;;13002507;22;20024;-89
2021/01/31 15:57:27;;;;;;;13.70;9.60;;;0.10;99.90;;;;;;13029201;22;19914;-89
2021/01/31 16:02:29;;;;;;;16.23;9.93;;;0.10;99.90;;;;;;12977865;22;20102;-89
2021/01/31 16:07:30;;;;;;;14.55;10.07;;;0.00;99.90;;;;;;13001635;22;20337;-89
2021/01/31 16:12:31;;;;;;;14.80;9.65;;;-0.10;99.90;;;;;;13003278;22;20050;-88
2021/01/31 16:17:33;;;;;;;15.77;10.80;;;-0.40;99.90;;;;;;13001798;22;20524;-88
2021/01/31 16:22:35;;;;;;;14.70;10.15;;;-0.50;99.90;;;;;;13027866;22;20019;-88
2021/01/31 16:27:36;;;;;;;41.70;22.30;;;-0.60;99.90;;;;;;13001986;22;20046;-88
2021/01/31 16:32:38;;;;;;;;;;;-0.80;99.90;;;;;;13027060;22;20019;-84
2021/01/31 16:37:44;;;;;;;38.08;20.35;;;-0.70;99.90;;;;;;13053989;22;20324;-84
2021/01/31 16:42:45;;;;;;;23.80;14.45;;;-0.80;99.90;;;;;;13027461;22;20102;-84
2021/01/31 16:47:46;;;;;;;;;;;-0.80;99.90;;;;;;13028026;22;20016;-84
2021/01/31 16:52:48;;;;;;;19.45;12.32;;;-0.90;99.90;;;;;;13002032;22;19915;-84
2021/01/31 16:57:50;;;;;;;;;;;-0.90;99.90;;;;;;13054017;22;20452;-84
2021/01/31 17:02:51;;;;;;;21.25;14.25;;;-0.80;99.90;;;;;;13000774;22;20338;-84
2021/01/31 17:07:54;;;;;;;21.20;14.27;;;-0.80;99.90;;;;;;13025816;22;20536;-84
2021/01/31 17:12:55;;;;;;;19.00;11.70;;;-0.70;99.90;;;;;;13025227;22;20754;-84
2021/01/31 17:17:57;;;;;;;18.95;12.45;;;-0.80;99.90;;;;;;13025950;22;20535;-84
2021/01/31 17:22:58;;;;;;;;;;;-0.70;99.90;;;;;;13025812;22;20025;-84
2021/01/31 17:28:00;;;;;;;21.57;12.70;;;-0.80;99.90;;;;;;13051635;22;19914;-84
2021/01/31 17:33:02;;;;;;;24.67;13.95;;;-0.90;99.90;;;;;;13024109;22;20062;-84
2021/01/31 17:38:03;;;;;;;26.08;16.52;;;-1.10;99.90;;;;;;12999619;22;20496;-84
2021/01/31 17:43:05;;;;;;;;;;;-0.90;99.90;;;;;;13025626;22;20078;-84
2021/01/31 17:48:08;;;;;;;21.00;13.88;;;-1.00;99.90;;;;;;13022487;22;19937;-84
2021/01/31 17:53:10;;;;;;;24.65;16.17;;;-0.90;99.90;;;;;;13027648;22;20023;-85
2021/01/31 17:58:11;;;;;;;;;;;-1.00;99.90;;;;;;13053798;22;20019;-85
2021/01/31 18:03:13;;;;;;;20.80;13.98;;;-1.00;99.90;;;;;;13025881;22;19929;-85
2021/01/31 18:08:15;;;;;;;24.60;15.30;;;-0.90;99.90;;;;;;13025355;22;20020;-85
2021/01/31 18:13:16;;;;;;;;;;;-0.80;99.90;;;;;;13025615;22;20528;-86
2021/01/31 18:18:17;;;;;;;25.77;15.02;;;-0.80;99.90;;;;;;12999382;22;20323;-85
2021/01/31 18:23:19;;;;;;;25.15;15.35;;;-0.80;99.90;;;;;;13000205;22;20051;-85
2021/01/31 18:28:20;;;;;;;27.05;15.32;;;-0.80;99.90;;;;;;13052887;22;20054;-85
2021/01/31 18:33:22;;;;;;;23.70;14.52;;;0.00;99.90;;;;;;13024891;22;20098;-85
2021/01/31 18:38:23;;;;;;;;;;;-0.30;99.90;;;;;;13054231;22;20486;-86
2021/01/31 18:43:25;;;;;;;21.65;14.75;;;-0.60;99.90;;;;;;13029642;22;19934;-86
2021/01/31 18:48:30;;;;;;;20.17;13.60;;;-0.50;99.90;;;;;;13029564;22;20456;-86
2021/01/31 18:53:31;;;;;;;;;;;-0.40;99.90;;;;;;13029461;22;20030;-86
2021/01/31 18:58:32;;;;;;;21.33;13.52;;;-0.40;99.90;;;;;;13056682;22;19982;-86
2021/01/31 19:03:37;;;;;;;23.42;14.57;;;-0.30;99.90;;;;;;13029538;22;20019;-86
2021/01/31 19:08:40;;;;;;;22.25;15.68;;;-0.30;99.90;;;;;;13056522;22;20015;-86
2021/01/31 19:13:42;;;;;;;21.55;14.05;;;-0.30;99.90;;;;;;13028889;22;20039;-86
2021/01/31 19:18:43;;;;;;;;;;;-0.20;99.90;;;;;;13004456;22;20051;-86
2021/01/31 19:23:45;;;;;;;21.65;13.93;;;-0.20;99.90;;;;;;13029007;22;20027;-86
2021/01/31 19:28:46;;;;;;;18.50;12.88;;;-0.20;99.90;;;;;;13054414;22;20411;-86
2021/01/31 19:33:48;;;;;;;18.90;13.15;;;-0.60;99.90;;;;;;13027840;22;20467;-86
2021/01/31 19:38:49;;;;;;;19.58;13.00;;;0.20;99.90;;;;;;13055042;22;20102;-86
2021/01/31 19:43:51;;;;;;;;;;;-0.10;99.90;;;;;;13028376;22;20452;-86
2021/01/31 19:48:52;;;;;;;22.25;14.45;;;-0.10;99.90;;;;;;13028216;22;19981;-86
2021/01/31 19:53:59;;;;;;;;;;;-0.10;99.90;;;;;;13056320;22;20051;-86
2021/01/31 19:59:00;;;;;;;23.02;13.98;;;0.10;99.90;;;;;;13029673;22;19987;-86
2021/01/31 20:04:03;;;;;;;20.75;13.77;;;-0.10;99.90;;;;;;13027280;22;20404;-85
2021/01/31 20:09:05;;;;;;;23.17;14.80;;;-0.10;99.90;;;;;;13001086;22;20379;-86
2021/01/31 20:14:09;;;;;;;19.90;13.57;;;-0.10;99.90;;;;;;13025532;22;20023;-86
2021/01/31 20:19:11;;;;;;;20.20;13.25;;;0.00;99.90;;;;;;13026747;22;20047;-86
2021/01/31 20:24:12;;;;;;;;;;;0.00;99.90;;;;;;13001489;22;20046;-86
2021/01/31 20:29:14;;;;;;;22.25;14.00;;;0.10;99.90;;;;;;13027920;22;19921;-86
2021/01/31 20:34:16;;;;;;;19.30;13.25;;;0.00;99.90;;;;;;13026957;22;20116;-86
2021/01/31 20:39:18;;;;;;;22.60;13.68;;;0.00;99.90;;;;;;13025985;22;20054;-86
2021/01/31 20:44:20;;;;;;;20.60;13.20;;;0.00;99.90;;;;;;13026724;22;20456;-86
2021/01/31 20:49:22;;;;;;;19.52;13.70;;;0.00;99.90;;;;;;13027632;22;20090;-86
2021/01/31 20:54:23;;;;;;;21.88;13.48;;;0.10;99.90;;;;;;13027402;22;20047;-86
2021/01/31 20:59:24;;;;;;;19.92;14.18;;;0.10;99.90;;;;;;13026512;22;20081;-85
2021/01/31 21:04:26;;;;;;;19.65;14.43;;;0.10;99.90;;;;;;13026764;22;20055;-86
2021/01/31 21:09:27;;;;;;;;;;;0.00;99.90;;;;;;13001079;22;20482;-86
2021/01/31 21:14:28;;;;;;;23.98;14.90;;;0.00;99.90;;;;;;13027007;22;19986;-85
2021/01/31 21:19:30;;;;;;;21.02;13.38;;;0.10;99.90;;;;;;13026150;22;20023;-85
2021/01/31 21:24:32;;;;;;;;;;;0.10;99.90;;;;;;13026462;22;20050;-85
2021/01/31 21:29:34;;;;;;;21.52;13.23;;;0.10;99.90;;;;;;13052873;22;20284;-85
2021/01/31 21:34:35;;;;;;;22.77;13.00;;;0.10;99.90;;;;;;13000661;22;20217;-86
2021/01/31 21:39:36;;;;;;;19.48;13.45;;;-0.20;99.90;;;;;;13025079;22;20411;-86
2021/01/31 21:44:38;;;;;;;;;;;0.00;99.90;;;;;;13000005;22;20419;-85
2021/01/31 21:49:39;;;;;;;26.23;14.38;;;-0.10;99.90;;;;;;13000364;22;19915;-86
2021/01/31 21:54:41;;;;;;;22.50;13.43;;;-0.10;99.90;;;;;;13026294;22;20106;-86
2021/01/31 21:59:42;;;;;;;18.20;13.27;;;-0.10;99.90;;;;;;13025239;22;20519;-86
2021/01/31 22:04:44;;;;;;;21.40;13.60;;;-0.20;99.90;;;;;;13026149;22;20020;-86
2021/01/31 22:09:45;;;;;;;21.70;13.52;;;-0.20;99.90;;;;;;13025613;22;20019;-86
2021/01/31 22:14:47;;;;;;;;;;;-0.20;99.90;;;;;;13026263;22;20058;-85
2021/01/31 22:19:48;;;;;;;18.25;12.30;;;-0.10;99.90;;;;;;13024656;22;19981;-85
2021/01/31 22:24:50;;;;;;;20.65;12.43;;;-0.10;99.90;;;;;;12999225;22;20094;-85
2021/01/31 22:29:51;;;;;;;18.45;12.77;;;-0.10;99.90;;;;;;13024436;22;20027;-86
2021/01/31 22:34:52;;;;;;;;;;;0.00;99.90;;;;;;13000544;22;20039;-87
2021/01/31 22:39:54;;;;;;;21.55;12.80;;;-0.40;99.90;;;;;;13000301;22;19915;-88
2021/01/31 22:44:56;;;;;;;21.15;13.57;;;0.10;99.90;;;;;;12999555;22;20015;-87
2021/01/31 22:49:57;;;;;;;20.52;13.02;;;0.10;99.90;;;;;;13000081;22;20128;-87
2021/01/31 22:54:58;;;;;;;;;;;0.10;99.90;;;;;;13025503;22;20094;-88
2021/01/31 23:00:00;;;;;;;18.35;12.82;;;0.10;99.90;;;;;;13000251;22;19978;-88
2021/01/31 23:05:01;;;;;;;21.05;13.38;;;0.10;99.90;;;;;;12999198;22;20098;-87
2021/01/31 23:10:04;;;;;;;;;;;0.10;99.90;;;;;;13000385;22;20095;-88
2021/01/31 23:15:06;;;;;;;;;;;0.20;99.90;;;;;;13050531;22;19942;-88
2021/01/31 23:20:08;;;;;;;;;;;0.20;99.90;;;;;;13024585;22;19925;-88
2021/01/31 23:25:13;;;;;;;;;;;0.20;99.90;;;;;;13001468;22;20005;-88
2021/01/31 23:30:17;;;;;;;;;;;0.10;99.90;;;;;;13028751;22;20407;-88
2021/01/31 23:35:20;;;;;;;;;;;0.10;99.90;;;;;;13028362;22;19942;-88
2021/01/31 23:40:22;;;;;;;;;;;0.10;99.90;;;;;;13056609;22;19982;-88
2021/01/31 23:45:25;;;;;;;;;;;0.10;99.90;;;;;;13028478;22;19922;-88
2021/01/31 23:50:27;;;;;;;;;;;-0.50;99.90;;;;;;13028370;22;19919;-88
2021/01/31 23:55:29;;;;;;;;;;;-0.10;99.90;;;;;;13029055;22;20324;-88
